createdAt,value
2019-01-26T00:00:49.503Z,79.60
2019-01-26T00:02:57.185Z,79.59
2019-01-26T00:05:03.865Z,78.48
2019-01-26T00:07:10.414Z,78.79
2019-01-26T00:09:16.636Z,77.51
2019-01-26T00:11:22.959Z,77.59
2019-01-26T00:13:29.716Z,77.84
2019-01-26T00:15:36.394Z,77.38
2019-01-26T00:17:44.285Z,77.18
2019-01-26T00:19:50.460Z,77.20
2019-01-26T00:21:59.743Z,77.48
2019-01-26T00:24:08.748Z,77.35
2019-01-26T00:26:16.600Z,77.91
2019-01-26T00:28:22.771Z,77.62
2019-01-26T00:30:30.302Z,77.75
2019-01-26T00:32:40.299Z,78.25
2019-01-26T00:34:46.654Z,78.28
2019-01-26T00:36:52.922Z,78.56
2019-01-26T00:38:59.343Z,78.62
2019-01-26T00:41:05.731Z,78.69
2019-01-26T00:43:12.141Z,78.90
2019-01-26T00:45:19.700Z,78.81
2019-01-26T00:47:27.631Z,78.73
2019-01-26T00:49:33.748Z,78.70
2019-01-26T00:51:41.451Z,78.73
2019-01-26T00:53:48.488Z,78.52
2019-01-26T00:55:54.802Z,78.36
2019-01-26T00:58:00.934Z,78.11
2019-01-26T01:00:22.235Z,78.15
2019-01-26T01:02:28.298Z,77.88
2019-01-26T01:04:34.518Z,77.47
2019-01-26T01:06:40.938Z,77.53
2019-01-26T01:08:47.296Z,77.07
2019-01-26T01:10:57.154Z,76.55
2019-01-26T01:13:03.080Z,76.49
2019-01-26T01:15:14.468Z,76.72
2019-01-26T01:17:22.454Z,76.05
2019-01-26T01:19:30.217Z,76.23
2019-01-26T01:21:37.562Z,75.85
2019-01-26T01:23:44.109Z,76.08
2019-01-26T01:25:50.489Z,75.94
2019-01-26T01:27:57.024Z,75.96
2019-01-26T01:30:03.108Z,75.78
2019-01-26T01:32:11.501Z,75.62
2019-01-26T01:34:19.510Z,75.81
2019-01-26T01:36:25.890Z,75.50
2019-01-26T01:38:32.179Z,75.74
2019-01-26T01:40:40.259Z,75.58
2019-01-26T01:42:49.112Z,75.70
2019-01-26T01:44:56.851Z,75.57
2019-01-26T01:47:03.634Z,75.79
2019-01-26T01:49:10.119Z,75.91
2019-01-26T01:51:16.570Z,75.94
2019-01-26T01:53:22.811Z,75.88
2019-01-26T01:55:29.651Z,76.26
2019-01-26T01:57:36.218Z,75.82
2019-01-26T01:59:43.847Z,75.84
2019-01-26T02:01:50.116Z,75.96
2019-01-26T02:03:56.371Z,76.07
2019-01-26T02:06:03.360Z,75.83
2019-01-26T02:08:16.270Z,76.12
2019-01-26T02:10:24.221Z,76.25
2019-01-26T02:12:30.438Z,76.79
2019-01-26T02:14:38.520Z,76.37
2019-01-26T02:16:50.049Z,76.70
2019-01-26T02:18:53.924Z,77.14
2019-01-26T02:21:01.926Z,76.81
2019-01-26T02:23:08.224Z,76.81
2019-01-26T02:25:14.694Z,76.87
2019-01-26T02:27:21.603Z,76.59
2019-01-26T02:29:27.663Z,77.27
2019-01-26T02:31:34.246Z,77.40
2019-01-26T02:33:40.711Z,77.03
2019-01-26T02:35:46.914Z,76.92
2019-01-26T02:37:53.247Z,77.04
2019-01-26T02:40:00.848Z,77.24
2019-01-26T02:42:08.492Z,77.56
2019-01-26T02:44:17.070Z,77.67
2019-01-26T02:46:23.182Z,77.88
2019-01-26T02:48:29.600Z,77.57
2019-01-26T02:50:36.527Z,77.84
2019-01-26T02:52:43.970Z,77.62
2019-01-26T02:54:50.052Z,77.78
2019-01-26T02:56:56.127Z,77.80
2019-01-26T02:59:03.378Z,77.69
2019-01-26T03:01:09.635Z,77.73
2019-01-26T03:03:16.892Z,78.18
2019-01-26T03:05:23.583Z,78.21
2019-01-26T03:07:31.291Z,78.10
2019-01-26T03:09:37.983Z,78.15
2019-01-26T03:11:45.083Z,78.21
2019-01-26T03:13:52.851Z,77.89
2019-01-26T03:16:02.072Z,77.80
2019-01-26T03:18:08.341Z,78.23
2019-01-26T03:20:16.809Z,77.88
2019-01-26T03:22:22.789Z,77.80
2019-01-26T03:24:29.567Z,77.94
2019-01-26T03:26:37.477Z,77.87
2019-01-26T03:28:43.742Z,77.54
2019-01-26T03:30:51.993Z,77.56
2019-01-26T03:32:57.990Z,78.09
2019-01-26T03:37:39.943Z,78.13
2019-01-26T03:42:30.954Z,77.58
2019-01-26T03:44:37.296Z,78.29
2019-01-26T03:46:43.762Z,78.22
2019-01-26T03:48:49.913Z,78.29
2019-01-26T03:50:56.231Z,78.28
2019-01-26T03:53:02.321Z,78.14
2019-01-26T03:55:12.583Z,77.94
2019-01-26T03:57:20.253Z,78.80
2019-01-26T03:59:28.084Z,78.62
2019-01-26T04:01:34.446Z,78.81
2019-01-26T04:03:40.498Z,78.94
2019-01-26T04:05:48.146Z,78.36
2019-01-26T04:07:54.456Z,78.65
2019-01-26T04:10:00.606Z,78.53
2019-01-26T04:12:07.034Z,78.87
2019-01-26T04:14:13.132Z,78.94
2019-01-26T04:16:20.050Z,78.75
2019-01-26T04:18:26.247Z,78.54
2019-01-26T04:20:32.885Z,79.36
2019-01-26T04:22:40.368Z,78.84
2019-01-26T04:24:47.229Z,79.04
2019-01-26T04:26:55.573Z,78.59
2019-01-26T04:29:02.131Z,78.68
2019-01-26T04:31:08.574Z,79.35
2019-01-26T04:33:16.969Z,79.13
2019-01-26T04:35:23.143Z,78.94
2019-01-26T04:37:29.646Z,78.96
2019-01-26T04:39:36.262Z,78.94
2019-01-26T04:41:42.329Z,79.04
2019-01-26T04:43:48.369Z,79.44
2019-01-26T04:45:54.891Z,78.89
2019-01-26T04:48:01.363Z,79.57
2019-01-26T04:50:11.856Z,79.47
2019-01-26T04:52:18.320Z,79.23
2019-01-26T04:54:26.075Z,79.31
2019-01-26T04:56:32.729Z,80.61
2019-01-26T04:58:39.249Z,80.74
2019-01-26T05:00:45.773Z,81.52
2019-01-26T05:02:52.510Z,83.26
2019-01-26T05:04:59.517Z,80.96
2019-01-26T05:07:05.710Z,81.79
2019-01-26T05:09:11.811Z,80.22
2019-01-26T05:11:18.456Z,78.98
2019-01-26T05:13:26.180Z,83.94
2019-01-26T05:15:32.469Z,82.45
2019-01-26T05:17:39.523Z,79.52
2019-01-26T05:19:46.054Z,77.55
2019-01-26T05:21:52.345Z,79.68
2019-01-26T05:23:58.651Z,77.12
2019-01-26T05:26:05.018Z,77.70
2019-01-26T05:28:12.162Z,80.11
2019-01-26T05:30:25.625Z,77.43
2019-01-26T05:32:31.783Z,78.91
2019-01-26T05:34:39.883Z,78.50
2019-01-26T05:36:47.258Z,79.98
2019-01-26T05:38:53.635Z,81.16
2019-01-26T05:41:00.012Z,81.29
2019-01-26T05:43:06.055Z,79.99
2019-01-26T05:45:18.841Z,81.26
2019-01-26T05:47:26.755Z,79.48
2019-01-26T05:49:33.126Z,77.82
2019-01-26T05:51:41.756Z,79.95
2019-01-26T05:53:48.772Z,80.57
2019-01-26T05:55:55.199Z,78.30
2019-01-26T05:58:01.329Z,80.13
2019-01-26T06:00:13.348Z,80.75
2019-01-26T06:02:19.806Z,80.67
2019-01-26T06:04:26.879Z,79.39
2019-01-26T06:06:33.375Z,79.18
2019-01-26T06:08:44.303Z,79.04
2019-01-26T06:10:55.820Z,79.31
2019-01-26T06:13:02.922Z,79.84
2019-01-26T06:15:12.206Z,79.22
2019-01-26T06:17:18.773Z,79.02
2019-01-26T06:19:25.117Z,79.71
2019-01-26T06:21:32.091Z,79.91
2019-01-26T06:23:38.962Z,81.20
2019-01-26T06:25:45.039Z,80.33
2019-01-26T06:27:52.992Z,81.33
2019-01-26T06:30:00.012Z,80.68
2019-01-26T06:32:06.343Z,81.53
2019-01-26T06:34:13.263Z,78.88
2019-01-26T06:36:19.463Z,80.21
2019-01-26T06:38:25.694Z,80.91
2019-01-26T06:40:32.146Z,78.54
2019-01-26T06:42:38.271Z,79.30
2019-01-26T06:44:46.120Z,78.64
2019-01-26T06:46:52.370Z,79.55
2019-01-26T06:48:59.227Z,78.59
2019-01-26T06:51:06.198Z,80.53
2019-01-26T06:53:12.417Z,80.20
2019-01-26T06:55:19.455Z,79.87
2019-01-26T06:57:25.491Z,80.75
2019-01-26T06:59:31.571Z,80.28
2019-01-26T07:01:40.994Z,79.88
2019-01-26T07:03:48.851Z,80.34
2019-01-26T07:05:59.853Z,78.90
2019-01-26T07:08:06.332Z,81.21
2019-01-26T07:10:12.632Z,79.30
2019-01-26T07:12:19.968Z,79.50
2019-01-26T07:14:26.231Z,77.06
2019-01-26T07:16:32.903Z,78.63
2019-01-26T07:18:39.037Z,79.19
2019-01-26T07:20:46.855Z,79.53
2019-01-26T07:22:53.001Z,80.35
2019-01-26T07:25:00.995Z,77.76
2019-01-26T07:27:07.412Z,78.11
2019-01-26T07:29:13.561Z,77.98
2019-01-26T07:31:19.901Z,77.42
2019-01-26T07:33:25.946Z,77.55
2019-01-26T07:35:32.311Z,77.50
2019-01-26T07:37:40.505Z,77.65
2019-01-26T07:39:48.272Z,78.00
2019-01-26T07:41:54.700Z,78.08
2019-01-26T07:44:00.942Z,77.97
2019-01-26T07:46:07.200Z,78.11
2019-01-26T07:48:16.920Z,77.89
2019-01-26T07:50:26.482Z,77.85
2019-01-26T07:52:32.922Z,77.43
2019-01-26T07:54:40.954Z,77.36
2019-01-26T07:56:47.321Z,77.44
2019-01-26T07:58:54.401Z,77.48
2019-01-26T08:01:01.461Z,77.34
2019-01-26T08:03:07.620Z,77.13
2019-01-26T08:05:13.961Z,77.58
2019-01-26T08:07:20.548Z,77.71
2019-01-26T08:09:28.251Z,77.22
2019-01-26T08:11:34.422Z,77.39
2019-01-26T08:13:41.976Z,77.65
2019-01-26T08:15:49.692Z,77.39
2019-01-26T08:17:56.764Z,77.86
2019-01-26T08:20:03.581Z,77.60
2019-01-26T08:22:09.785Z,77.71
2019-01-26T08:24:15.955Z,77.83
2019-01-26T08:26:23.171Z,77.85
2019-01-26T08:28:29.294Z,77.98
2019-01-26T08:30:35.610Z,77.82
2019-01-26T08:32:42.424Z,77.64
2019-01-26T08:34:48.776Z,77.80
2019-01-26T08:36:54.943Z,77.58
2019-01-26T08:39:02.281Z,77.26
2019-01-26T08:41:08.597Z,77.06
2019-01-26T08:43:14.975Z,76.87
2019-01-26T08:45:21.107Z,76.06
2019-01-26T08:47:27.431Z,75.30
2019-01-26T08:49:33.702Z,75.79
2019-01-26T08:51:40.508Z,75.09
2019-01-26T08:53:47.842Z,74.48
2019-01-26T08:55:54.256Z,74.64
2019-01-26T08:58:03.029Z,73.91
2019-01-26T09:00:28.590Z,73.87
2019-01-26T09:02:46.020Z,74.01
2019-01-26T09:04:55.768Z,73.72
2019-01-26T09:07:02.948Z,72.72
2019-01-26T09:09:11.591Z,72.83
2019-01-26T09:11:17.711Z,72.40
2019-01-26T09:13:23.990Z,73.04
2019-01-26T09:15:32.053Z,73.52
2019-01-26T09:17:38.331Z,74.02
2019-01-26T09:19:46.023Z,73.50
2019-01-26T09:21:55.410Z,73.03
2019-01-26T09:24:02.551Z,73.66
2019-01-26T09:26:10.693Z,73.14
2019-01-26T09:28:17.157Z,73.64
2019-01-26T09:30:23.679Z,73.85
2019-01-26T09:32:32.257Z,73.57
2019-01-26T09:34:39.741Z,73.10
2019-01-26T09:36:46.150Z,72.99
2019-01-26T09:38:52.187Z,72.99
2019-01-26T09:40:58.618Z,72.12
2019-01-26T09:43:05.046Z,72.41
2019-01-26T09:45:20.611Z,73.06
2019-01-26T09:47:26.761Z,71.43
2019-01-26T09:49:33.140Z,72.20
2019-01-26T09:51:42.671Z,71.97
2019-01-26T09:53:49.281Z,71.77
2019-01-26T09:55:57.321Z,71.72
2019-01-26T09:58:03.571Z,72.77
2019-01-26T10:00:26.340Z,72.71
2019-01-26T10:02:33.721Z,74.08
2019-01-26T10:04:40.557Z,73.42
2019-01-26T10:06:46.998Z,72.73
2019-01-26T10:08:53.320Z,72.76
2019-01-26T10:11:00.012Z,72.51
2019-01-26T10:13:06.341Z,72.46
2019-01-26T10:15:23.471Z,73.33
2019-01-26T10:17:30.350Z,72.83
2019-01-26T10:19:37.440Z,72.08
2019-01-26T10:21:43.901Z,72.33
2019-01-26T10:23:51.281Z,72.51
2019-01-26T10:25:57.877Z,72.48
2019-01-26T10:28:04.581Z,73.42
2019-01-26T10:30:25.722Z,73.82
2019-01-26T10:32:32.682Z,74.10
2019-01-26T10:34:39.049Z,75.19
2019-01-26T10:36:47.906Z,75.20
2019-01-26T10:38:55.570Z,74.16
2019-01-26T10:41:03.381Z,74.01
2019-01-26T10:43:10.768Z,74.17
2019-01-26T10:45:19.490Z,74.37
2019-01-26T10:47:27.730Z,74.22
2019-01-26T10:49:34.311Z,73.21
2019-01-26T10:51:40.491Z,72.85
2019-01-26T10:53:49.530Z,72.92
2019-01-26T10:55:57.491Z,72.53
2019-01-26T10:58:05.961Z,72.32
2019-01-26T11:00:19.961Z,72.25
2019-01-26T11:02:26.378Z,72.42
2019-01-26T11:04:32.512Z,72.70
2019-01-26T11:06:38.690Z,73.18
2019-01-26T11:08:46.699Z,73.62
2019-01-26T11:10:53.559Z,72.94
2019-01-26T11:13:00.103Z,72.51
2019-01-26T11:15:10.062Z,72.24
2019-01-26T11:17:16.945Z,72.55
2019-01-26T11:19:24.026Z,76.39
2019-01-26T11:21:34.081Z,71.51
2019-01-26T11:23:41.046Z,71.80
2019-01-26T11:25:47.095Z,75.14
2019-01-26T11:27:53.563Z,74.07
2019-01-26T11:30:00.210Z,71.34
2019-01-26T11:32:06.626Z,72.37
2019-01-26T11:34:13.382Z,74.69
2019-01-26T11:36:20.126Z,73.21
2019-01-26T11:38:27.486Z,69.37
2019-01-26T11:40:35.086Z,69.63
2019-01-26T11:42:41.986Z,70.42
2019-01-26T11:45:05.852Z,70.27
2019-01-26T11:47:16.114Z,76.57
2019-01-26T11:49:23.395Z,71.27
2019-01-26T11:51:31.195Z,72.16
2019-01-26T11:53:38.337Z,71.52
2019-01-26T11:55:46.279Z,69.74
2019-01-26T11:57:52.731Z,71.46
2019-01-26T12:00:09.766Z,70.42
2019-01-26T12:02:18.177Z,71.09
2019-01-26T12:04:26.177Z,70.80
2019-01-26T12:06:35.354Z,70.51
2019-01-26T12:08:41.656Z,69.95
2019-01-26T12:10:48.143Z,70.47
2019-01-26T12:12:54.375Z,70.59
2019-01-26T12:15:00.521Z,71.75
2019-01-26T12:17:07.315Z,71.51
2019-01-26T12:19:13.692Z,71.85
2019-01-26T12:21:26.868Z,72.15
2019-01-26T12:23:33.443Z,72.62
2019-01-26T12:25:39.523Z,72.91
2019-01-26T12:27:45.987Z,73.13
2019-01-26T12:29:53.363Z,73.29
2019-01-26T12:32:00.440Z,72.97
2019-01-26T12:34:06.823Z,72.66
2019-01-26T12:36:13.318Z,73.42
2019-01-26T12:38:19.846Z,73.76
2019-01-26T12:40:28.494Z,73.47
2019-01-26T12:42:34.934Z,73.68
2019-01-26T12:44:41.274Z,73.95
2019-01-26T12:46:47.654Z,74.46
2019-01-26T12:48:54.340Z,74.23
2019-01-26T12:51:01.475Z,73.66
2019-01-26T12:53:08.073Z,73.89
2019-01-26T12:55:20.096Z,74.98
2019-01-26T12:57:26.579Z,73.68
2019-01-26T12:59:32.882Z,73.46
2019-01-26T13:01:40.695Z,74.82
2019-01-26T13:03:47.055Z,74.04
2019-01-26T13:05:53.724Z,74.52
2019-01-26T13:07:59.900Z,74.08
2019-01-26T13:10:10.903Z,74.07
2019-01-26T13:12:17.694Z,74.31
2019-01-26T13:14:24.973Z,74.74
2019-01-26T13:16:35.985Z,74.88
2019-01-26T13:18:43.647Z,74.64
2019-01-26T13:20:50.086Z,75.05
2019-01-26T13:22:57.261Z,75.08
2019-01-26T13:25:08.316Z,75.17
2019-01-26T13:27:14.949Z,74.77
2019-01-26T13:29:21.395Z,75.03
2019-01-26T13:31:28.008Z,74.99
2019-01-26T13:33:34.443Z,74.88
2019-01-26T13:35:41.050Z,75.29
2019-01-26T13:37:47.443Z,75.13
2019-01-26T13:39:55.277Z,75.20
2019-01-26T13:42:03.284Z,75.04
2019-01-26T13:44:20.882Z,75.25
2019-01-26T13:46:28.004Z,75.60
2019-01-26T13:48:35.414Z,76.27
2019-01-26T13:50:43.085Z,75.58
2019-01-26T13:52:50.279Z,75.79
2019-01-26T13:54:57.505Z,75.58
2019-01-26T13:57:04.043Z,76.49
2019-01-26T13:59:10.326Z,76.53
2019-01-26T14:01:17.303Z,76.68
2019-01-26T14:03:23.666Z,77.11
2019-01-26T14:05:30.242Z,76.62
2019-01-26T14:07:36.725Z,76.79
2019-01-26T14:09:46.954Z,76.49
2019-01-26T14:11:53.648Z,76.87
2019-01-26T14:14:00.585Z,77.01
2019-01-26T14:16:07.538Z,77.16
2019-01-26T14:18:14.251Z,77.34
2019-01-26T14:20:28.619Z,77.16
2019-01-26T14:22:34.853Z,77.21
2019-01-26T14:24:41.512Z,77.70
2019-01-26T14:26:49.816Z,77.52
2019-01-26T14:28:56.282Z,77.45
2019-01-26T14:31:03.030Z,77.54
2019-01-26T14:33:10.021Z,77.88
2019-01-26T14:35:18.164Z,78.02
2019-01-26T14:37:24.611Z,78.28
2019-01-26T14:39:31.380Z,78.29
2019-01-26T14:41:38.410Z,78.34
2019-01-26T14:43:44.870Z,77.95
2019-01-26T14:45:51.519Z,78.01
2019-01-26T14:47:58.188Z,78.08
2019-01-26T14:50:07.370Z,78.38
2019-01-26T14:52:15.350Z,78.23
2019-01-26T14:54:22.297Z,78.38
2019-01-26T14:56:29.191Z,78.72
2019-01-26T14:58:35.650Z,78.78
2019-01-26T15:00:42.803Z,78.91
2019-01-26T15:02:49.370Z,78.99
2019-01-26T15:04:56.047Z,79.32
2019-01-26T15:07:04.377Z,79.17
2019-01-26T15:09:11.261Z,79.33
2019-01-26T15:11:20.960Z,79.38
2019-01-26T15:13:27.621Z,79.52
2019-01-26T15:15:34.558Z,79.81
2019-01-26T15:17:40.971Z,80.01
2019-01-26T15:19:47.961Z,79.72
2019-01-26T15:21:54.508Z,79.96
2019-01-26T15:24:00.990Z,79.91
2019-01-26T15:26:07.290Z,79.81
2019-01-26T15:28:13.710Z,80.10
2019-01-26T15:30:29.278Z,79.96
2019-01-26T15:32:36.051Z,79.94
2019-01-26T15:34:42.421Z,80.10
2019-01-26T15:36:49.379Z,80.02
2019-01-26T15:38:56.055Z,79.90
2019-01-26T15:41:04.366Z,79.78
2019-01-26T15:43:11.328Z,79.99
2019-01-26T15:45:22.847Z,80.04
2019-01-26T15:47:29.721Z,80.03
2019-01-26T15:49:36.498Z,79.99
2019-01-26T15:51:43.400Z,80.01
2019-01-26T15:53:53.113Z,79.99
2019-01-26T15:56:02.599Z,80.13
2019-01-26T15:58:12.430Z,80.08
2019-01-26T16:00:26.381Z,80.48
2019-01-26T16:02:34.309Z,80.29
2019-01-26T16:04:43.390Z,80.44
2019-01-26T16:06:50.157Z,80.50
2019-01-26T16:08:56.740Z,80.39
2019-01-26T16:11:03.458Z,80.69
2019-01-26T16:13:10.050Z,80.48
2019-01-26T16:15:23.711Z,80.37
2019-01-26T16:17:30.410Z,80.65
2019-01-26T16:19:37.501Z,80.41
2019-01-26T16:21:47.798Z,80.36
2019-01-26T16:24:03.420Z,80.56
2019-01-26T16:26:15.584Z,80.71
2019-01-26T16:28:29.154Z,80.43
2019-01-26T16:30:39.628Z,80.70
2019-01-26T16:32:47.442Z,80.47
2019-01-26T16:34:54.351Z,80.49
2019-01-26T16:37:01.370Z,80.31
2019-01-26T16:39:09.780Z,80.23
2019-01-26T16:41:17.901Z,80.02
2019-01-26T16:43:27.795Z,80.34
2019-01-26T16:45:39.002Z,80.44
2019-01-26T16:47:50.823Z,80.50
2019-01-26T16:49:58.737Z,80.21
2019-01-26T16:52:05.531Z,80.41
2019-01-26T16:54:15.663Z,80.76
2019-01-26T16:56:28.730Z,80.96
2019-01-26T16:58:42.931Z,80.69
2019-01-26T17:00:49.623Z,80.60
2019-01-26T17:02:56.367Z,80.59
2019-01-26T17:05:04.317Z,80.69
2019-01-26T17:07:11.021Z,80.62
2019-01-26T17:09:20.985Z,80.34
2019-01-26T17:11:34.261Z,80.54
2019-01-26T17:13:45.756Z,80.84
2019-01-26T17:15:53.205Z,80.70
2019-01-26T17:18:00.406Z,80.79
2019-01-26T17:20:34.598Z,80.54
2019-01-26T17:22:37.085Z,80.80
2019-01-26T17:24:45.168Z,80.83
2019-01-26T17:26:53.573Z,80.95
2019-01-26T17:29:00.360Z,80.98
2019-01-26T17:31:06.887Z,81.14
2019-01-26T17:33:15.878Z,80.91
2019-01-26T17:35:27.155Z,81.26
2019-01-26T17:37:40.193Z,80.95
2019-01-26T17:39:50.379Z,80.80
2019-01-26T17:42:04.115Z,80.91
2019-01-26T17:44:19.633Z,80.85
2019-01-26T17:46:33.688Z,81.00
2019-01-26T17:48:50.738Z,81.13
2019-01-26T17:50:59.931Z,81.51
2019-01-26T17:53:09.192Z,82.21
2019-01-26T17:55:15.923Z,81.50
2019-01-26T17:57:26.015Z,81.62
2019-01-26T17:59:37.323Z,81.36
2019-01-26T18:01:51.220Z,81.68
2019-01-26T18:04:04.255Z,81.92
2019-01-26T18:06:11.940Z,81.70
2019-01-26T18:08:18.699Z,81.67
2019-01-26T18:12:40.502Z,81.60
2019-01-26T18:14:47.322Z,81.72
2019-01-26T18:16:54.332Z,81.90
2019-01-26T18:19:01.540Z,82.08
2019-01-26T18:21:08.897Z,81.60
2019-01-26T18:23:17.850Z,81.36
2019-01-26T18:25:26.281Z,81.75
2019-01-26T18:27:33.289Z,81.92
2019-01-26T18:29:40.039Z,81.83
2019-01-26T18:31:46.910Z,81.96
2019-01-26T18:33:53.897Z,81.75
2019-01-26T18:36:01.280Z,82.25
2019-01-26T18:38:08.057Z,82.02
2019-01-26T18:40:22.769Z,81.90
2019-01-26T18:42:29.548Z,82.03
2019-01-26T18:44:38.400Z,81.94
2019-01-26T18:46:47.111Z,82.02
2019-01-26T18:48:54.007Z,81.92
2019-01-26T18:51:00.920Z,82.25
2019-01-26T18:53:07.707Z,81.85
2019-01-26T18:55:14.613Z,81.89
2019-01-26T18:57:21.305Z,82.09
2019-01-26T18:59:28.163Z,82.04
2019-01-26T19:01:34.832Z,81.88
2019-01-26T19:03:51.705Z,81.70
2019-01-26T19:06:00.783Z,81.75
2019-01-26T19:08:08.027Z,81.89
2019-01-26T19:10:15.403Z,82.16
2019-01-26T19:12:22.107Z,82.09
2019-01-26T19:14:29.127Z,81.89
2019-01-26T19:16:36.542Z,81.68
2019-01-26T19:18:43.374Z,82.00
2019-01-26T19:20:50.128Z,81.88
2019-01-26T19:23:01.878Z,81.73
2019-01-26T19:25:13.830Z,81.65
2019-01-26T19:27:22.486Z,81.83
2019-01-26T19:29:29.402Z,81.66
2019-01-26T19:31:36.351Z,81.38
2019-01-26T19:33:44.408Z,81.37
2019-01-26T19:35:51.648Z,81.47
2019-01-26T19:37:58.565Z,81.33
2019-01-26T19:40:14.442Z,81.29
2019-01-26T19:42:21.494Z,81.12
2019-01-26T19:44:28.189Z,81.00
2019-01-26T19:46:35.176Z,81.08
2019-01-26T19:48:42.214Z,81.08
2019-01-26T19:50:49.003Z,81.15
2019-01-26T19:52:56.351Z,81.02
2019-01-26T19:55:03.043Z,81.21
2019-01-26T19:57:10.031Z,81.33
2019-01-26T19:59:17.900Z,81.19
2019-01-26T20:01:25.665Z,81.08
2019-01-26T20:03:32.390Z,81.17
2019-01-26T20:05:39.060Z,81.28
2019-01-26T20:07:45.954Z,81.26
2019-01-26T20:09:53.039Z,81.17
2019-01-26T20:12:00.010Z,81.11
2019-01-26T20:14:06.892Z,80.89
2019-01-26T20:16:14.220Z,81.01
2019-01-26T20:18:22.060Z,81.23
2019-01-26T20:20:35.904Z,81.22
2019-01-26T20:22:42.569Z,81.10
2019-01-26T20:24:49.939Z,81.06
2019-01-26T20:26:57.782Z,81.08
2019-01-26T20:29:05.904Z,81.11
2019-01-26T20:31:13.074Z,81.10
2019-01-26T20:33:19.878Z,81.17
2019-01-26T20:35:26.262Z,81.18
2019-01-26T20:37:33.203Z,81.13
2019-01-26T20:39:41.935Z,81.20
2019-01-26T20:41:48.650Z,81.32
2019-01-26T20:43:55.596Z,81.45
2019-01-26T20:46:03.105Z,81.24
2019-01-26T20:48:10.440Z,81.14
2019-01-26T20:50:17.241Z,81.06
2019-01-26T20:52:23.990Z,81.11
2019-01-26T20:54:30.594Z,81.41
2019-01-26T20:56:37.334Z,81.42
2019-01-26T20:58:44.705Z,81.57
2019-01-26T21:00:51.333Z,81.49
2019-01-26T21:02:58.484Z,81.43
2019-01-26T21:05:06.329Z,81.55
2019-01-26T21:07:14.845Z,81.42
2019-01-26T21:09:22.484Z,81.56
2019-01-26T21:11:29.173Z,81.42
2019-01-26T21:13:35.717Z,81.67
2019-01-26T21:15:43.082Z,81.46
2019-01-26T21:17:50.799Z,81.52
2019-01-26T21:19:57.573Z,81.42
2019-01-26T21:22:04.660Z,81.65
2019-01-26T21:24:33.410Z,81.69
2019-01-26T21:26:40.054Z,81.80
2019-01-26T21:28:47.045Z,81.86
2019-01-26T21:30:53.884Z,82.02
2019-01-26T21:33:00.814Z,81.72
2019-01-26T21:35:13.262Z,81.95
2019-01-26T21:37:20.021Z,82.03
2019-01-26T21:39:29.034Z,82.15
2019-01-26T21:41:36.979Z,82.13
2019-01-26T21:43:44.288Z,82.07
2019-01-26T21:45:50.962Z,82.39
2019-01-26T21:47:57.833Z,82.40
2019-01-26T21:50:06.334Z,82.23
2019-01-26T21:52:14.353Z,82.23
2019-01-26T21:54:21.722Z,82.15
2019-01-26T21:56:28.293Z,82.01
2019-01-26T21:58:34.551Z,82.02
2019-01-26T22:00:41.185Z,81.96
2019-01-26T22:02:47.424Z,81.79
2019-01-26T22:04:53.924Z,82.11
2019-01-26T22:07:00.443Z,81.95
2019-01-26T22:09:09.370Z,82.03
2019-01-26T22:13:37.264Z,82.21
2019-01-26T22:15:43.754Z,82.24
2019-01-26T22:17:51.773Z,81.71
2019-01-26T22:20:01.203Z,82.24
2019-01-26T22:22:09.107Z,81.85
2019-01-26T22:24:15.685Z,82.14
2019-01-26T22:26:22.121Z,81.79
2019-01-26T22:28:28.683Z,82.04
2019-01-26T22:30:36.340Z,81.88
2019-01-26T22:32:43.524Z,82.10
2019-01-26T22:34:53.632Z,82.06
2019-01-26T22:37:00.533Z,81.84
2019-01-26T22:39:09.840Z,81.74
2019-01-26T22:41:17.303Z,82.18
2019-01-26T22:43:23.737Z,82.13
2019-01-26T22:45:30.324Z,82.26
2019-01-26T22:47:37.683Z,82.20
2019-01-26T22:49:44.122Z,82.13
2019-01-26T22:51:53.401Z,82.26
2019-01-26T22:54:00.533Z,82.23
2019-01-26T22:56:07.966Z,82.14
2019-01-26T22:58:14.690Z,82.30
2019-01-26T23:00:53.055Z,82.39
2019-01-26T23:03:02.075Z,82.36
2019-01-26T23:05:44.886Z,82.52
2019-01-26T23:07:52.925Z,82.26
2019-01-26T23:10:12.093Z,82.21
2019-01-26T23:12:47.913Z,82.44
2019-01-26T23:15:13.564Z,82.48
2019-01-26T23:17:27.403Z,82.26
2019-01-26T23:19:44.723Z,82.50
2019-01-26T23:22:15.368Z,82.13
2019-01-26T23:24:32.690Z,82.34
2019-01-26T23:27:11.800Z,82.10
2019-01-26T23:29:44.911Z,82.26
2019-01-26T23:31:51.563Z,82.07
2019-01-26T23:33:57.805Z,82.33
2019-01-26T23:36:04.363Z,82.29
2019-01-26T23:38:12.090Z,82.40
2019-01-26T23:40:18.483Z,82.33
2019-01-26T23:42:24.770Z,82.28
2019-01-26T23:44:31.054Z,82.33
2019-01-26T23:46:38.432Z,82.40
2019-01-26T23:48:44.763Z,82.52
2019-01-26T23:50:51.115Z,82.52
2019-01-26T23:52:57.326Z,82.31
2019-01-26T23:55:03.974Z,82.33
2019-01-26T23:57:11.914Z,82.45
2019-01-26T23:59:19.643Z,82.33
